Lady Goodgirl — 9H8679 — position and weather

sailwx.info

Track history (hours):
 
Tides and Currents Weather Stations Pressure Air Temp Water Temp Dewpoint Dewpoint Depression Visibility Wind Speed Wind Dir Waves Ship Positions

Lady Goodgirl

Last reported at 2015-Jul-30 05:25 UTC. Time now 2015-Jul-30 10:11 UTC.
Position N 35°54' E 014°30'.

Length 38 m; draft 2.8 m.

Type: Pleasure craft. MMSI: 256670000.

Date/timePositionNaut miles runAvg speedWind from/ knotsBaromVisibWave heightAir tempDewpointWater temp
2015-Jul-30 05:25N 35°54' E 014°30'0 0.0
2015-Jul-29 19:12N 35°54' E 014°30'0 0.0
2015-Jul-29 18:30N 35°54' E 014°30'0 0.0
2015-Jul-29 17:33N 35°54' E 014°30'0 0.0
2015-Jul-29 16:31N 35°54' E 014°30'0 0.0
2015-Jul-29 15:33N 35°54' E 014°30'0 0.0
2015-Jul-29 14:34N 35°54' E 014°30'0 0.0
2015-Jul-29 13:34N 35°54' E 014°30'0 0.0
2015-Jul-29 12:34N 35°54' E 014°30'0 0.0
2015-Jul-29 10:34N 35°54' E 014°30'0 0.0
2015-Jul-29 04:32N 35°54' E 014°30'0 0.0
2015-Jul-28 20:16N 35°54' E 014°30'0 0.0
2015-Jul-28 19:11N 35°54' E 014°30'0 0.0
2015-Jul-28 18:33N 35°54' E 014°30'0 0.0
2015-Jul-28 17:33N 35°54' E 014°30'0 0.0
2015-Jul-28 16:33N 35°54' E 014°30'0 0.0
2015-Jul-28 15:33N 35°54' E 014°30'0 0.0
2015-Jul-28 14:33N 35°54' E 014°30'0 0.0
2015-Jul-28 13:31N 35°54' E 014°30'0 0.0
2015-Jul-28 12:34N 35°54' E 014°30'0 0.0
2015-Jul-28 11:33N 35°54' E 014°30'0 0.0
2015-Jul-28 10:34N 35°54' E 014°30'0 0.0
2015-Jul-28 04:32N 35°54' E 014°30'0 0.0
2015-Jul-27 18:15N 35°54' E 014°30'0 0.0
2015-Jul-27 17:32N 35°54' E 014°30'0 0.0
2015-Jul-27 16:33N 35°54' E 014°30'0 0.0
2015-Jul-27 15:33N 35°54' E 014°30'0 0.0
2015-Jul-27 11:15N 35°54' E 014°30'0 0.0
2015-Jul-27 10:33N 35°54' E 014°30'0 0.0
2015-Jul-26 16:28N 35°54' E 014°30'5 5.2
2015-Jul-26 15:33N 35°58' E 014°33'1212.1
2015-Jul-26 14:33N 36°08' E 014°42'1212.1
2015-Jul-26 13:34N 36°18' E 014°51'1212.2
2015-Jul-26 12:33N 36°28' E 014°59'1212.0
2015-Jul-26 11:33N 36°38' E 015°07'1211.7
2015-Jul-26 10:32N 36°49' E 015°14'65 2.6
2015-Jul-25 09:32N 37°54' E 015°21'1212.0
2015-Jul-25 08:33N 38°03' E 015°30'1211.8
2015-Jul-25 07:33N 38°14' E 015°36'9 9.2
2015-Jul-25 06:33N 38°23' E 015°35'1212.0
2015-Jul-25 05:32N 38°33' E 015°26'18 1.1
2015-Jul-24 13:07N 38°47' E 015°11'711.7
2015-Jul-24 12:32N 38°41' E 015°07'4 0.2
2015-Jul-23 16:07N 38°38' E 015°05'0 0.0
2015-Jul-23 15:33N 38°38' E 015°05'3 2.5
2015-Jul-23 14:31N 38°36' E 015°03'9 9.1
2015-Jul-23 13:33N 38°28' E 014°58'0 0.0
2015-Jul-23 12:29N 38°28' E 014°58'0 0.0
2015-Jul-23 10:33N 38°28' E 014°58'0 0.0
2015-Jul-23 09:32N 38°28' E 014°58'0 0.0
2015-Jul-23 08:23N 38°28' E 014°58'0 0.0
2015-Jul-23 07:32N 38°28' E 014°58'0 0.0
2015-Jul-23 06:27N 38°28' E 014°58'0 0.0
2015-Jul-23 05:10N 38°28' E 014°58'0 0.0
2015-Jul-23 04:31N 38°28' E 014°58'0 0.0
2015-Jul-23 03:33N 38°28' E 014°58'0 0.0
2015-Jul-23 02:17N 38°28' E 014°58'0 0.0
2015-Jul-23 01:29N 38°28' E 014°58'0 0.0
2015-Jul-23 00:31N 38°28' E 014°58'0 0.0
2015-Jul-22 23:32N 38°28' E 014°58'0 0.0
2015-Jul-22 22:33N 38°28' E 014°58'0 0.0
2015-Jul-22 21:31N 38°28' E 014°58'0 0.0
2015-Jul-22 20:31N 38°28' E 014°58'0 0.0
2015-Jul-22 19:32N 38°28' E 014°58'0 0.0
2015-Jul-22 18:28N 38°28' E 014°58'0 0.0
2015-Jul-22 16:15N 38°28' E 014°58'0 0.1
2015-Jul-22 14:28N 38°28' E 014°58'84 3.4
2015-Jul-21 13:34N 38°43' E 013°12'1 0.2
2015-Jul-21 08:26N 38°43' E 013°11'0 0.0
2015-Jul-21 07:31N 38°43' E 013°11'0 0.0
2015-Jul-21 03:23N 38°44' E 013°11'0 0.0
2015-Jul-20 21:27N 38°44' E 013°11'25 7.9
2015-Jul-20 18:15N 38°25' E 012°49'911.5
2015-Jul-20 17:26N 38°18' E 012°41'1111.0
2015-Jul-20 16:28N 38°09' E 012°32'1011.4
2015-Jul-20 15:33N 38°02' E 012°24'3 3.4
2015-Jul-20 14:34N 37°59' E 012°21'0 0.0
2015-Jul-20 13:34N 37°59' E 012°21'0 0.0
2015-Jul-20 12:33N 37°59' E 012°21'0 0.0
2015-Jul-20 11:33N 37°59' E 012°21'0 0.0
2015-Jul-20 10:33N 37°59' E 012°21'1 1.0
2015-Jul-20 09:33N 37°58' E 012°21'3 3.4
2015-Jul-20 08:33N 37°55' E 012°20'0 0.0
2015-Jul-20 07:33N 37°55' E 012°20'0 0.0
2015-Jul-20 06:33N 37°55' E 012°20'0 0.0
2015-Jul-20 05:34N 37°55' E 012°20'  
Track history (hours):
 
Tides and Currents Weather Stations Pressure Air Temp Water Temp Dewpoint Dewpoint Depression Visibility Wind Speed Wind Dir Waves Ship Positions

Lady Goodgirl

Last reported at 2015-Jul-30 05:25 UTC. Time now 2015-Jul-30 10:11 UTC.
Position N 35°54' E 014°30'.

Length 38 m; draft 2.8 m.

Type: Pleasure craft. MMSI: 256670000.

Date/timePositionNaut miles runAvg speedWind from/ knotsBaromVisibWave heightAir tempDewpointWater temp
2015-Jul-30 05:25N 35°54' E 014°30'0 0.0
2015-Jul-29 19:12N 35°54' E 014°30'0 0.0
2015-Jul-29 18:30N 35°54' E 014°30'0 0.0
2015-Jul-29 17:33N 35°54' E 014°30'0 0.0
2015-Jul-29 16:31N 35°54' E 014°30'0 0.0
2015-Jul-29 15:33N 35°54' E 014°30'0 0.0
2015-Jul-29 14:34N 35°54' E 014°30'0 0.0
2015-Jul-29 13:34N 35°54' E 014°30'0 0.0
2015-Jul-29 12:34N 35°54' E 014°30'0 0.0
2015-Jul-29 10:34N 35°54' E 014°30'0 0.0
2015-Jul-29 04:32N 35°54' E 014°30'0 0.0
2015-Jul-28 20:16N 35°54' E 014°30'0 0.0
2015-Jul-28 19:11N 35°54' E 014°30'0 0.0
2015-Jul-28 18:33N 35°54' E 014°30'0 0.0
2015-Jul-28 17:33N 35°54' E 014°30'0 0.0
2015-Jul-28 16:33N 35°54' E 014°30'0 0.0
2015-Jul-28 15:33N 35°54' E 014°30'0 0.0
2015-Jul-28 14:33N 35°54' E 014°30'0 0.0
2015-Jul-28 13:31N 35°54' E 014°30'0 0.0
2015-Jul-28 12:34N 35°54' E 014°30'0 0.0
2015-Jul-28 11:33N 35°54' E 014°30'0 0.0
2015-Jul-28 10:34N 35°54' E 014°30'0 0.0
2015-Jul-28 04:32N 35°54' E 014°30'0 0.0
2015-Jul-27 18:15N 35°54' E 014°30'0 0.0
2015-Jul-27 17:32N 35°54' E 014°30'0 0.0
2015-Jul-27 16:33N 35°54' E 014°30'0 0.0
2015-Jul-27 15:33N 35°54' E 014°30'0 0.0
2015-Jul-27 11:15N 35°54' E 014°30'0 0.0
2015-Jul-27 10:33N 35°54' E 014°30'0 0.0
2015-Jul-26 16:28N 35°54' E 014°30'5 5.2
2015-Jul-26 15:33N 35°58' E 014°33'1212.1
2015-Jul-26 14:33N 36°08' E 014°42'1212.1
2015-Jul-26 13:34N 36°18' E 014°51'1212.2
2015-Jul-26 12:33N 36°28' E 014°59'1212.0
2015-Jul-26 11:33N 36°38' E 015°07'1211.7
2015-Jul-26 10:32N 36°49' E 015°14'65 2.6
2015-Jul-25 09:32N 37°54' E 015°21'1212.0
2015-Jul-25 08:33N 38°03' E 015°30'1211.8
2015-Jul-25 07:33N 38°14' E 015°36'9 9.2
2015-Jul-25 06:33N 38°23' E 015°35'1212.0
2015-Jul-25 05:32N 38°33' E 015°26'18 1.1
2015-Jul-24 13:07N 38°47' E 015°11'711.7
2015-Jul-24 12:32N 38°41' E 015°07'4 0.2
2015-Jul-23 16:07N 38°38' E 015°05'0 0.0
2015-Jul-23 15:33N 38°38' E 015°05'3 2.5
2015-Jul-23 14:31N 38°36' E 015°03'9 9.1
2015-Jul-23 13:33N 38°28' E 014°58'0 0.0
2015-Jul-23 12:29N 38°28' E 014°58'0 0.0
2015-Jul-23 10:33N 38°28' E 014°58'0 0.0
2015-Jul-23 09:32N 38°28' E 014°58'0 0.0
2015-Jul-23 08:23N 38°28' E 014°58'0 0.0
2015-Jul-23 07:32N 38°28' E 014°58'0 0.0
2015-Jul-23 06:27N 38°28' E 014°58'0 0.0
2015-Jul-23 05:10N 38°28' E 014°58'0 0.0
2015-Jul-23 04:31N 38°28' E 014°58'0 0.0
2015-Jul-23 03:33N 38°28' E 014°58'0 0.0
2015-Jul-23 02:17N 38°28' E 014°58'0 0.0
2015-Jul-23 01:29N 38°28' E 014°58'0 0.0
2015-Jul-23 00:31N 38°28' E 014°58'0 0.0
2015-Jul-22 23:32N 38°28' E 014°58'0 0.0
2015-Jul-22 22:33N 38°28' E 014°58'0 0.0
2015-Jul-22 21:31N 38°28' E 014°58'0 0.0
2015-Jul-22 20:31N 38°28' E 014°58'0 0.0
2015-Jul-22 19:32N 38°28' E 014°58'0 0.0
2015-Jul-22 18:28N 38°28' E 014°58'0 0.0
2015-Jul-22 16:15N 38°28' E 014°58'0 0.1
2015-Jul-22 14:28N 38°28' E 014°58'84 3.4
2015-Jul-21 13:34N 38°43' E 013°12'1 0.2
2015-Jul-21 08:26N 38°43' E 013°11'0 0.0
2015-Jul-21 07:31N 38°43' E 013°11'0 0.0
2015-Jul-21 03:23N 38°44' E 013°11'0 0.0
2015-Jul-20 21:27N 38°44' E 013°11'25 7.9
2015-Jul-20 18:15N 38°25' E 012°49'911.5
2015-Jul-20 17:26N 38°18' E 012°41'1111.0
2015-Jul-20 16:28N 38°09' E 012°32'1011.4
2015-Jul-20 15:33N 38°02' E 012°24'3 3.4
2015-Jul-20 14:34N 37°59' E 012°21'0 0.0
2015-Jul-20 13:34N 37°59' E 012°21'0 0.0
2015-Jul-20 12:33N 37°59' E 012°21'0 0.0
2015-Jul-20 11:33N 37°59' E 012°21'0 0.0
2015-Jul-20 10:33N 37°59' E 012°21'1 1.0
2015-Jul-20 09:33N 37°58' E 012°21'3 3.4
2015-Jul-20 08:33N 37°55' E 012°20'0 0.0
2015-Jul-20 07:33N 37°55' E 012°20'0 0.0
2015-Jul-20 06:33N 37°55' E 012°20'0 0.0
2015-Jul-20 05:34N 37°55' E 012°20'  

Dump ship's entire track history